Ingleside — WDH6600 — position and weather

sailwx.info

Track history (hours):
 
Tides and Currents Weather Stations Pressure Air Temp Water Temp Dewpoint Dewpoint Depression Visibility Wind Speed Wind Dir Waves Ship Positions

Ingleside

Owner: Higman Barge Lines, Inc., Orange, TX. More information available from US FCC via Universal Licensing System and Coast Guard Vessel Documentation Center.

Last reported at 2018-May-18 06:48 UTC. Time now 2018-May-25 05:20 UTC.
Position N 27°49' W 097°28'.

Length 115 m; draft 2.6 m.

Type: . MMSI: 367639680.

Date/timePositionNaut miles runAvg speedWind from/ knotsBaromVisibWave heightAir tempDewpointWater temp
2018-May-18 06:48N 27°49' W 097°28'0 0.0
2018-May-18 06:18N 27°49' W 097°28'0 0.0
2018-May-18 06:00N 27°49' W 097°28'0 0.0
2018-May-18 05:18N 27°49' W 097°28'0 0.0
2018-May-18 04:24N 27°49' W 097°28'0 0.0
2018-May-18 02:48N 27°49' W 097°28'1 0.0
2018-May-16 11:44N 27°50' W 097°30'0 0.0
2018-May-16 10:05N 27°50' W 097°30'0 0.0
2018-May-16 09:47N 27°50' W 097°30'  
2018-May-13 22:19N 28°45' W 095°45'2 4.6
2018-May-13 21:57N 28°44' W 095°43'3 5.8
2018-May-13 21:30N 28°46' W 095°41'2 4.6
2018-May-13 20:59N 28°46' W 095°38'3 5.5
2018-May-13 20:30N 28°47' W 095°35'3 5.8
2018-May-13 20:00N 28°49' W 095°33'3 5.1
2018-May-13 19:29N 28°51' W 095°31'3 5.3
2018-May-13 19:00N 28°52' W 095°28'3 5.3
2018-May-13 18:29N 28°53' W 095°25'1 1.5
2018-May-13 17:55N 28°54' W 095°25'0 1.1
2018-May-13 17:28N 28°54' W 095°24'2 3.3
2018-May-13 17:00N 28°54' W 095°22'1 2.9
2018-May-13 16:29N 28°54' W 095°24'0 0.9
2018-May-13 16:00N 28°54' W 095°24'1 2.9
2018-May-13 15:30N 28°54' W 095°23'0 0.9
2018-May-13 14:59N 28°54' W 095°22'0 0.2
2018-May-13 14:26N 28°54' W 095°22'0 0.8
2018-May-13 13:57N 28°54' W 095°22'0 0.0
2018-May-13 13:22N 28°54' W 095°22'0 0.4
2018-May-13 12:56N 28°55' W 095°22'1 2.7
2018-May-13 12:29N 28°55' W 095°21'2 4.1
2018-May-13 11:55N 28°57' W 095°18'2 4.6
2018-May-13 11:30N 28°58' W 095°17'3 5.2
2018-May-13 11:00N 29°00' W 095°15'3 5.1
2018-May-13 10:30N 29°02' W 095°14'2 4.9
2018-May-13 10:00N 29°05' W 095°13'2 4.7
2018-May-13 09:30N 29°07' W 095°12'2 4.6
2018-May-13 09:00N 29°08' W 095°10'3 5.5
2018-May-13 08:30N 29°10' W 095°07'3 5.3
2018-May-13 08:00N 29°11' W 095°05'3 5.1
2018-May-13 07:30N 29°13' W 095°02'2 5.0
2018-May-13 07:00N 29°15' W 095°01'3 5.4
2018-May-13 06:30N 29°17' W 094°59'3 5.6
2018-May-13 06:00N 29°17' W 094°55'2 4.3
2018-May-13 05:30N 29°18' W 094°53'3 6.3
2018-May-13 05:00N 29°20' W 094°50'3 5.0
2018-May-13 04:30N 29°22' W 094°48'4 7.0
2018-May-13 03:59N 29°25' W 094°50'4 8.0
2018-May-13 03:28N 29°29' W 094°52'4 7.7
2018-May-13 03:00N 29°32' W 094°54'4 7.7
2018-May-13 02:30N 29°35' W 094°56'3 5.4
2018-May-13 02:00N 29°38' W 094°58'3 6.7
2018-May-13 01:30N 29°41' W 094°59'3 6.2
2018-May-13 01:00N 29°43' W 095°01'3 6.2
2018-May-13 00:30N 29°45' W 095°04'2 4.3
2018-May-13 00:00N 29°45' W 095°06'3 5.1
2018-May-12 23:29N 29°44' W 095°09'2 0.1
2018-May-11 02:12N 29°44' W 095°12'1 6.2
2018-May-11 02:00N 29°45' W 095°11'4 7.4
2018-May-11 01:31N 29°45' W 095°06'1 0.8
2018-May-11 00:01N 29°46' W 095°07'0 0.0
2018-May-10 23:58N 29°46' W 095°07'0 0.0
2018-May-10 23:28N 29°46' W 095°07'0 0.0
2018-May-10 22:55N 29°46' W 095°07'0 0.0
2018-May-10 22:19N 29°46' W 095°07'0 0.0
2018-May-10 21:52N 29°46' W 095°07'0 0.0
2018-May-10 21:25N 29°46' W 095°07'0 0.0
2018-May-10 20:55N 29°46' W 095°07'0 0.0
2018-May-10 20:28N 29°46' W 095°07'0 0.0
2018-May-10 19:58N 29°46' W 095°07'0 0.0
2018-May-10 19:28N 29°46' W 095°07'0 0.0
2018-May-10 18:55N 29°46' W 095°07'0 0.0
2018-May-10 18:28N 29°46' W 095°07'0 0.0
2018-May-10 17:55N 29°46' W 095°07'0 0.0
2018-May-10 17:28N 29°46' W 095°07'0 0.0
2018-May-10 16:55N 29°46' W 095°07'0 0.0
2018-May-10 16:22N 29°46' W 095°07'0 0.0
2018-May-10 15:58N 29°46' W 095°07'0 0.0
2018-May-10 15:28N 29°46' W 095°07'0 0.0
2018-May-10 14:52N 29°46' W 095°07'0 0.0
2018-May-10 14:28N 29°46' W 095°07'0 0.0
2018-May-10 13:58N 29°46' W 095°07'0 0.0
2018-May-10 13:25N 29°46' W 095°07'0 0.0
2018-May-10 12:58N 29°46' W 095°07'0 0.0
2018-May-10 12:31N 29°46' W 095°07'0 0.0
2018-May-10 11:58N 29°46' W 095°07'0 0.0
2018-May-10 11:31N 29°46' W 095°07'0 0.0
2018-May-10 10:37N 29°46' W 095°07'0 0.0
2018-May-10 10:31N 29°46' W 095°07'0 0.0
2018-May-10 07:43N 29°46' W 095°07'0 0.0
2018-May-10 07:22N 29°46' W 095°07'0 0.0
2018-May-10 06:58N 29°46' W 095°07'0 0.0
2018-May-10 06:27N 29°46' W 095°07'0 0.0
2018-May-10 05:58N 29°46' W 095°07'0 0.0
2018-May-10 05:25N 29°46' W 095°07'0 0.0
2018-May-10 04:55N 29°46' W 095°07'0 0.0
2018-May-10 04:25N 29°46' W 095°07'0 0.0
2018-May-10 03:57N 29°46' W 095°07'0 0.0
2018-May-10 03:25N 29°46' W 095°07'0 0.0
2018-May-10 03:00N 29°46' W 095°07'0 0.0
2018-May-10 02:30N 29°46' W 095°07'0 0.0
2018-May-10 02:00N 29°46' W 095°07'1 2.0
2018-May-10 01:28N 29°46' W 095°06'0 0.0
2018-May-10 00:55N 29°46' W 095°06'1 0.1
2018-May-09 20:36N 29°46' W 095°06'0 4.0
2018-May-09 20:30N 29°46' W 095°06'0 0.5
2018-May-09 19:52N 29°46' W 095°07'0 0.0
2018-May-09 19:16N 29°46' W 095°07'0 0.0
2018-May-09 18:58N 29°46' W 095°07'0 0.0
2018-May-09 18:22N 29°46' W 095°07'0 0.0
2018-May-09 17:58N 29°46' W 095°07'0 0.0
2018-May-09 17:16N 29°46' W 095°07'0 0.0
2018-May-09 16:34N 29°46' W 095°07'0 0.0
2018-May-09 16:28N 29°46' W 095°07'0 0.0
2018-May-09 14:10N 29°46' W 095°07'0 0.0
2018-May-09 13:40N 29°46' W 095°07'0 0.0
2018-May-09 13:22N 29°46' W 095°07'0 0.0
2018-May-09 09:52N 29°46' W 095°07'0 0.0
2018-May-09 09:28N 29°46' W 095°07'0 0.0
2018-May-09 08:52N 29°46' W 095°07'0 0.0
2018-May-09 08:28N 29°46' W 095°07'0 0.0
2018-May-09 07:58N 29°46' W 095°07'0 0.0
2018-May-09 06:55N 29°46' W 095°07'0 0.0
2018-May-09 06:22N 29°46' W 095°07'0 0.0
2018-May-09 05:58N 29°46' W 095°07'0 0.0
2018-May-09 05:25N 29°46' W 095°07'0 0.0
2018-May-09 04:58N 29°46' W 095°07'0 0.0
2018-May-09 04:28N 29°46' W 095°07'0 0.0
2018-May-09 03:58N 29°46' W 095°07'0 0.0
2018-May-09 03:28N 29°46' W 095°07'0 0.0
2018-May-09 02:58N 29°46' W 095°07'0 0.0
2018-May-09 02:28N 29°46' W 095°07'0 0.0
2018-May-09 01:49N 29°46' W 095°07'0 0.0
2018-May-09 01:28N 29°46' W 095°07'0 0.0
2018-May-09 00:55N 29°46' W 095°07'0 0.0
2018-May-09 00:28N 29°46' W 095°07'0 0.0
2018-May-08 23:52N 29°46' W 095°07'0 0.0
2018-May-08 23:28N 29°46' W 095°07'0 0.0
2018-May-08 22:52N 29°46' W 095°07'0 0.0
2018-May-08 22:22N 29°46' W 095°07'0 0.0
2018-May-08 21:58N 29°46' W 095°07'0 0.0
2018-May-08 21:28N 29°46' W 095°07'0 0.0
2018-May-08 20:58N 29°46' W 095°07'0 0.0
2018-May-08 20:28N 29°46' W 095°07'0 0.0
2018-May-08 19:52N 29°46' W 095°07'0 0.0
2018-May-08 19:22N 29°46' W 095°07'0 0.0
2018-May-08 18:58N 29°46' W 095°07'0 0.0
2018-May-08 14:31N 29°46' W 095°07'0 0.0
2018-May-08 14:25N 29°46' W 095°07'0 0.0
2018-May-08 13:34N 29°46' W 095°07'0 0.0
2018-May-08 13:28N 29°46' W 095°07'0 0.0
2018-May-08 12:55N 29°46' W 095°07'0 0.0
2018-May-08 12:22N 29°46' W 095°07'0 0.0
2018-May-08 11:28N 29°46' W 095°07'0 0.0
2018-May-08 10:52N 29°46' W 095°07'0 0.0
2018-May-08 10:25N 29°46' W 095°07'0 0.0
2018-May-08 09:58N 29°46' W 095°07'0 0.0
2018-May-08 09:25N 29°46' W 095°07'0 0.0
2018-May-08 08:52N 29°46' W 095°07'0 0.0
2018-May-08 08:28N 29°46' W 095°07'0 0.0
2018-May-08 07:58N 29°46' W 095°07'0 0.0
2018-May-08 07:25N 29°46' W 095°07'0 0.0
2018-May-08 06:52N 29°46' W 095°07'  
Track history (hours):
 
Tides and Currents Weather Stations Pressure Air Temp Water Temp Dewpoint Dewpoint Depression Visibility Wind Speed Wind Dir Waves Ship Positions

Ingleside

Owner: Higman Barge Lines, Inc., Orange, TX. More information available from US FCC via Universal Licensing System and Coast Guard Vessel Documentation Center.

Last reported at 2018-May-18 06:48 UTC. Time now 2018-May-25 05:20 UTC.
Position N 27°49' W 097°28'.

Length 115 m; draft 2.6 m.

Type: . MMSI: 367639680.

Date/timePositionNaut miles runAvg speedWind from/ knotsBaromVisibWave heightAir tempDewpointWater temp
2018-May-18 06:48N 27°49' W 097°28'0 0.0
2018-May-18 06:18N 27°49' W 097°28'0 0.0
2018-May-18 06:00N 27°49' W 097°28'0 0.0
2018-May-18 05:18N 27°49' W 097°28'0 0.0
2018-May-18 04:24N 27°49' W 097°28'0 0.0
2018-May-18 02:48N 27°49' W 097°28'1 0.0
2018-May-16 11:44N 27°50' W 097°30'0 0.0
2018-May-16 10:05N 27°50' W 097°30'0 0.0
2018-May-16 09:47N 27°50' W 097°30'  
2018-May-13 22:19N 28°45' W 095°45'2 4.6
2018-May-13 21:57N 28°44' W 095°43'3 5.8
2018-May-13 21:30N 28°46' W 095°41'2 4.6
2018-May-13 20:59N 28°46' W 095°38'3 5.5
2018-May-13 20:30N 28°47' W 095°35'3 5.8
2018-May-13 20:00N 28°49' W 095°33'3 5.1
2018-May-13 19:29N 28°51' W 095°31'3 5.3
2018-May-13 19:00N 28°52' W 095°28'3 5.3
2018-May-13 18:29N 28°53' W 095°25'1 1.5
2018-May-13 17:55N 28°54' W 095°25'0 1.1
2018-May-13 17:28N 28°54' W 095°24'2 3.3
2018-May-13 17:00N 28°54' W 095°22'1 2.9
2018-May-13 16:29N 28°54' W 095°24'0 0.9
2018-May-13 16:00N 28°54' W 095°24'1 2.9
2018-May-13 15:30N 28°54' W 095°23'0 0.9
2018-May-13 14:59N 28°54' W 095°22'0 0.2
2018-May-13 14:26N 28°54' W 095°22'0 0.8
2018-May-13 13:57N 28°54' W 095°22'0 0.0
2018-May-13 13:22N 28°54' W 095°22'0 0.4
2018-May-13 12:56N 28°55' W 095°22'1 2.7
2018-May-13 12:29N 28°55' W 095°21'2 4.1
2018-May-13 11:55N 28°57' W 095°18'2 4.6
2018-May-13 11:30N 28°58' W 095°17'3 5.2
2018-May-13 11:00N 29°00' W 095°15'3 5.1
2018-May-13 10:30N 29°02' W 095°14'2 4.9
2018-May-13 10:00N 29°05' W 095°13'2 4.7
2018-May-13 09:30N 29°07' W 095°12'2 4.6
2018-May-13 09:00N 29°08' W 095°10'3 5.5
2018-May-13 08:30N 29°10' W 095°07'3 5.3
2018-May-13 08:00N 29°11' W 095°05'3 5.1
2018-May-13 07:30N 29°13' W 095°02'2 5.0
2018-May-13 07:00N 29°15' W 095°01'3 5.4
2018-May-13 06:30N 29°17' W 094°59'3 5.6
2018-May-13 06:00N 29°17' W 094°55'2 4.3
2018-May-13 05:30N 29°18' W 094°53'3 6.3
2018-May-13 05:00N 29°20' W 094°50'3 5.0
2018-May-13 04:30N 29°22' W 094°48'4 7.0
2018-May-13 03:59N 29°25' W 094°50'4 8.0
2018-May-13 03:28N 29°29' W 094°52'4 7.7
2018-May-13 03:00N 29°32' W 094°54'4 7.7
2018-May-13 02:30N 29°35' W 094°56'3 5.4
2018-May-13 02:00N 29°38' W 094°58'3 6.7
2018-May-13 01:30N 29°41' W 094°59'3 6.2
2018-May-13 01:00N 29°43' W 095°01'3 6.2
2018-May-13 00:30N 29°45' W 095°04'2 4.3
2018-May-13 00:00N 29°45' W 095°06'3 5.1
2018-May-12 23:29N 29°44' W 095°09'2 0.1
2018-May-11 02:12N 29°44' W 095°12'1 6.2
2018-May-11 02:00N 29°45' W 095°11'4 7.4
2018-May-11 01:31N 29°45' W 095°06'1 0.8
2018-May-11 00:01N 29°46' W 095°07'0 0.0
2018-May-10 23:58N 29°46' W 095°07'0 0.0
2018-May-10 23:28N 29°46' W 095°07'0 0.0
2018-May-10 22:55N 29°46' W 095°07'0 0.0
2018-May-10 22:19N 29°46' W 095°07'0 0.0
2018-May-10 21:52N 29°46' W 095°07'0 0.0
2018-May-10 21:25N 29°46' W 095°07'0 0.0
2018-May-10 20:55N 29°46' W 095°07'0 0.0
2018-May-10 20:28N 29°46' W 095°07'0 0.0
2018-May-10 19:58N 29°46' W 095°07'0 0.0
2018-May-10 19:28N 29°46' W 095°07'0 0.0
2018-May-10 18:55N 29°46' W 095°07'0 0.0
2018-May-10 18:28N 29°46' W 095°07'0 0.0
2018-May-10 17:55N 29°46' W 095°07'0 0.0
2018-May-10 17:28N 29°46' W 095°07'0 0.0
2018-May-10 16:55N 29°46' W 095°07'0 0.0
2018-May-10 16:22N 29°46' W 095°07'0 0.0
2018-May-10 15:58N 29°46' W 095°07'0 0.0
2018-May-10 15:28N 29°46' W 095°07'0 0.0
2018-May-10 14:52N 29°46' W 095°07'0 0.0
2018-May-10 14:28N 29°46' W 095°07'0 0.0
2018-May-10 13:58N 29°46' W 095°07'0 0.0
2018-May-10 13:25N 29°46' W 095°07'0 0.0
2018-May-10 12:58N 29°46' W 095°07'0 0.0
2018-May-10 12:31N 29°46' W 095°07'0 0.0
2018-May-10 11:58N 29°46' W 095°07'0 0.0
2018-May-10 11:31N 29°46' W 095°07'0 0.0
2018-May-10 10:37N 29°46' W 095°07'0 0.0
2018-May-10 10:31N 29°46' W 095°07'0 0.0
2018-May-10 07:43N 29°46' W 095°07'0 0.0
2018-May-10 07:22N 29°46' W 095°07'0 0.0
2018-May-10 06:58N 29°46' W 095°07'0 0.0
2018-May-10 06:27N 29°46' W 095°07'0 0.0
2018-May-10 05:58N 29°46' W 095°07'0 0.0
2018-May-10 05:25N 29°46' W 095°07'0 0.0
2018-May-10 04:55N 29°46' W 095°07'0 0.0
2018-May-10 04:25N 29°46' W 095°07'0 0.0
2018-May-10 03:57N 29°46' W 095°07'0 0.0
2018-May-10 03:25N 29°46' W 095°07'0 0.0
2018-May-10 03:00N 29°46' W 095°07'0 0.0
2018-May-10 02:30N 29°46' W 095°07'0 0.0
2018-May-10 02:00N 29°46' W 095°07'1 2.0
2018-May-10 01:28N 29°46' W 095°06'0 0.0
2018-May-10 00:55N 29°46' W 095°06'1 0.1
2018-May-09 20:36N 29°46' W 095°06'0 4.0
2018-May-09 20:30N 29°46' W 095°06'0 0.5
2018-May-09 19:52N 29°46' W 095°07'0 0.0
2018-May-09 19:16N 29°46' W 095°07'0 0.0
2018-May-09 18:58N 29°46' W 095°07'0 0.0
2018-May-09 18:22N 29°46' W 095°07'0 0.0
2018-May-09 17:58N 29°46' W 095°07'0 0.0
2018-May-09 17:16N 29°46' W 095°07'0 0.0
2018-May-09 16:34N 29°46' W 095°07'0 0.0
2018-May-09 16:28N 29°46' W 095°07'0 0.0
2018-May-09 14:10N 29°46' W 095°07'0 0.0
2018-May-09 13:40N 29°46' W 095°07'0 0.0
2018-May-09 13:22N 29°46' W 095°07'0 0.0
2018-May-09 09:52N 29°46' W 095°07'0 0.0
2018-May-09 09:28N 29°46' W 095°07'0 0.0
2018-May-09 08:52N 29°46' W 095°07'0 0.0
2018-May-09 08:28N 29°46' W 095°07'0 0.0
2018-May-09 07:58N 29°46' W 095°07'0 0.0
2018-May-09 06:55N 29°46' W 095°07'0 0.0
2018-May-09 06:22N 29°46' W 095°07'0 0.0
2018-May-09 05:58N 29°46' W 095°07'0 0.0
2018-May-09 05:25N 29°46' W 095°07'0 0.0
2018-May-09 04:58N 29°46' W 095°07'0 0.0
2018-May-09 04:28N 29°46' W 095°07'0 0.0
2018-May-09 03:58N 29°46' W 095°07'0 0.0
2018-May-09 03:28N 29°46' W 095°07'0 0.0
2018-May-09 02:58N 29°46' W 095°07'0 0.0
2018-May-09 02:28N 29°46' W 095°07'0 0.0
2018-May-09 01:49N 29°46' W 095°07'0 0.0
2018-May-09 01:28N 29°46' W 095°07'0 0.0
2018-May-09 00:55N 29°46' W 095°07'0 0.0
2018-May-09 00:28N 29°46' W 095°07'0 0.0
2018-May-08 23:52N 29°46' W 095°07'0 0.0
2018-May-08 23:28N 29°46' W 095°07'0 0.0
2018-May-08 22:52N 29°46' W 095°07'0 0.0
2018-May-08 22:22N 29°46' W 095°07'0 0.0
2018-May-08 21:58N 29°46' W 095°07'0 0.0
2018-May-08 21:28N 29°46' W 095°07'0 0.0
2018-May-08 20:58N 29°46' W 095°07'0 0.0
2018-May-08 20:28N 29°46' W 095°07'0 0.0
2018-May-08 19:52N 29°46' W 095°07'0 0.0
2018-May-08 19:22N 29°46' W 095°07'0 0.0
2018-May-08 18:58N 29°46' W 095°07'0 0.0
2018-May-08 14:31N 29°46' W 095°07'0 0.0
2018-May-08 14:25N 29°46' W 095°07'0 0.0
2018-May-08 13:34N 29°46' W 095°07'0 0.0
2018-May-08 13:28N 29°46' W 095°07'0 0.0
2018-May-08 12:55N 29°46' W 095°07'0 0.0
2018-May-08 12:22N 29°46' W 095°07'0 0.0
2018-May-08 11:28N 29°46' W 095°07'0 0.0
2018-May-08 10:52N 29°46' W 095°07'0 0.0
2018-May-08 10:25N 29°46' W 095°07'0 0.0
2018-May-08 09:58N 29°46' W 095°07'0 0.0
2018-May-08 09:25N 29°46' W 095°07'0 0.0
2018-May-08 08:52N 29°46' W 095°07'0 0.0
2018-May-08 08:28N 29°46' W 095°07'0 0.0
2018-May-08 07:58N 29°46' W 095°07'0 0.0
2018-May-08 07:25N 29°46' W 095°07'0 0.0
2018-May-08 06:52N 29°46' W 095°07'  

Dump ship's entire track history